Stevens Point, WI (54481)

11:18 PM CST on March 02, 2015 (GMT -0600)
Stevens Point Municipal | Change Station
CLOSE
Current Station
Airport
Location: Stevens Point,
Elevation: 1109 ft
Nearby Weather Stations
Active Advisory: Winter Weather Advisory

Elev 1109 ft 44.54 °N, 89.53 °W | Updated 23 minutes ago

Overcast
Overcast
22 °F
Feels Like 13 °F
N
8
Wind Variable Wind from South

Today
High -- | Low -- °F
--% Chance of Precip.
Yesterday
High -- | Low -- °F
Precip. -- in
6:34 AM 5:47 PM
Waxing Gibbous, 94% visible
Pressure 30.16 in
Visibility 10.0 miles
Clouds Overcast 9000 ft
Windchill 13 °F
Dew Point 10 °F
Humidity 60%
Rainfall 0.00 in
Snow Depth Not available.
UV 0 out of 12
Pollen .40 out of 12
Air Quality Not available.
Flu Activity Not available.
METAR KSTE 030455Z AUTO 17007KT 10SM OVC090 M05/M12 A3016 RMK AO2 T10551121

More Conditions Fewer Conditions

Pressure 30.16 in
Visibility 10.0 miles
Clouds Overcast 9000 ft
Windchill 13 °F
Dew Point 10 °F
Humidity 60%
Rainfall 0.00 in
Snow Depth Not available.
UV 0 out of 12
Pollen .40 out of 12
Air Quality Not available.
Flu Activity Not available.
METAR KSTE 030455Z AUTO 17007KT 10SM OVC090 M05/M12 A3016 RMK AO2 T10551121

More Conditions Fewer Conditions

10-Day Weather Forecast

Almanac

Astronomy

Mar. 02, 2015 Rise Set
Actual Time
Civil Twilight
Nautical Twilight
Astronomical Twilight
Moon
Length of Visible Light
Length of Day
Tomorrow will be .
, % of the Moon is Illuminated

Today's Extremes

State Highs State Lows

Community

WunderPhotos

Upload Photos

1,802,066 photos uploaded!

WunderBlogs® & News

Nearby

Air Quality

  Air Quality AQ Index Pollutant
Not available.

Snow Depth

Station Depth Elevation

Earthquake Activity

City Distance Mag. Time & Date
Minimum magnitude displayed is 2.5.

Coastal Water Temperatures

Place Temperature

Nearby Weather Stations

Winter Weather Advisory
Statement as of 10:38 PM CST on March 02, 2015

... Winter Weather Advisory remains in effect from 3 am to 6 PM
CST Tuesday...

* a period of light snow or flurries is possible late tonight.

* The main band of snow is expected to push through the area
Tuesday. The heaviest snow will fall during the morning hours...
with snow tapering to flurries during the afternoon.

* A total snow accumulation of 3 to 4 inches is expected.

* Travel conditions may become hazardous due to snow covered
roads and reduced visibility.

* Snow could significantly impact the morning commute in central
Wisconsin.

Precautionary/preparedness actions...

A Winter Weather Advisory for snow means that periods of snow
will cause some travel difficulties. Be prepared for snow covered
roads and limited visibilities... and use caution while driving.
The latest Wisconsin Road conditions can be obtained by calling
511.